createdAt,value
2017-09-09T00:00:23.812Z,15.50
2017-09-09T00:02:52.107Z,15.50
2017-09-09T00:05:21.104Z,15.60
2017-09-09T00:07:49.366Z,15.60
2017-09-09T00:10:17.801Z,15.60
2017-09-09T00:12:46.091Z,15.50
2017-09-09T00:15:14.371Z,15.60
2017-09-09T00:17:42.644Z,15.60
2017-09-09T00:20:11.672Z,15.60
2017-09-09T00:22:39.968Z,15.60
2017-09-09T00:25:09.059Z,15.60
2017-09-09T00:27:37.318Z,15.60
2017-09-09T00:30:05.577Z,15.60
2017-09-09T00:32:33.840Z,15.50
2017-09-09T00:35:02.837Z,15.50
2017-09-09T00:37:31.085Z,15.50
2017-09-09T00:40:00.091Z,15.50
2017-09-09T00:42:28.962Z,15.50
2017-09-09T00:44:57.237Z,15.50
2017-09-09T00:47:26.251Z,15.50
2017-09-09T00:49:55.298Z,15.50
2017-09-09T00:52:23.569Z,15.50
2017-09-09T00:54:51.888Z,15.50
2017-09-09T00:57:20.168Z,15.50
2017-09-09T00:59:48.417Z,15.50
2017-09-09T01:02:16.853Z,15.50
2017-09-09T01:04:45.065Z,15.50
2017-09-09T01:07:13.334Z,15.50
2017-09-09T01:09:41.571Z,15.50
2017-09-09T01:12:10.595Z,15.40
2017-09-09T01:14:38.851Z,15.40
2017-09-09T01:17:07.095Z,15.40
2017-09-09T01:19:35.371Z,15.40
2017-09-09T01:22:03.650Z,15.30
2017-09-09T01:24:31.894Z,15.30
2017-09-09T01:27:00.165Z,15.30
2017-09-09T01:29:28.460Z,15.30
2017-09-09T01:31:56.707Z,15.20
2017-09-09T01:34:24.998Z,15.20
2017-09-09T01:36:53.227Z,15.20
2017-09-09T01:39:21.448Z,15.30
2017-09-09T01:41:49.726Z,15.30
2017-09-09T01:44:17.925Z,15.30
2017-09-09T01:46:46.962Z,15.30
2017-09-09T01:49:15.970Z,15.40
2017-09-09T01:51:44.192Z,15.30
2017-09-09T01:54:12.435Z,15.30
2017-09-09T01:56:40.689Z,15.30
2017-09-09T01:59:09.696Z,15.30
2017-09-09T02:01:37.956Z,15.30
2017-09-09T02:04:06.212Z,15.30
2017-09-09T02:06:34.438Z,15.30
2017-09-09T02:09:02.703Z,15.30
2017-09-09T02:11:30.955Z,15.30
2017-09-09T02:13:59.958Z,15.20
2017-09-09T02:16:28.975Z,15.20
2017-09-09T02:18:57.213Z,15.20
2017-09-09T02:21:25.464Z,15.10
2017-09-09T02:23:53.721Z,15.10
2017-09-09T02:26:21.962Z,15.20
2017-09-09T02:28:50.230Z,15.20
2017-09-09T02:31:19.250Z,15.10
2017-09-09T02:33:47.526Z,15.10
2017-09-09T02:36:15.763Z,15.10
2017-09-09T02:38:44.835Z,15.10
2017-09-09T02:41:13.106Z,15.10
2017-09-09T02:43:42.119Z,15.20
2017-09-09T02:46:10.383Z,15.20
2017-09-09T02:48:38.619Z,15.20
2017-09-09T02:51:06.855Z,15.20
2017-09-09T02:53:35.116Z,15.20
2017-09-09T02:56:03.334Z,15.20
2017-09-09T02:58:32.343Z,15.20
2017-09-09T03:01:00.615Z,15.20
2017-09-09T03:03:28.890Z,15.20
2017-09-09T03:05:57.902Z,15.20
2017-09-09T03:08:26.149Z,15.20
2017-09-09T03:10:54.398Z,15.20
2017-09-09T03:13:22.660Z,15.20
2017-09-09T03:15:51.692Z,15.10
2017-09-09T03:18:20.690Z,15.10
2017-09-09T03:20:48.918Z,15.10
2017-09-09T03:23:17.179Z,15.10
2017-09-09T03:25:45.432Z,15.10
2017-09-09T03:28:14.444Z,15.10
2017-09-09T03:30:42.706Z,15.10
2017-09-09T03:33:11.716Z,15.10
2017-09-09T03:35:39.980Z,15.10
2017-09-09T03:38:08.207Z,15.10
2017-09-09T03:40:36.423Z,15.10
2017-09-09T03:43:05.466Z,15.10
2017-09-09T03:45:34.286Z,15.10
2017-09-09T03:48:02.536Z,15.10
2017-09-09T03:50:30.826Z,15.00
2017-09-09T03:52:59.066Z,15.00
2017-09-09T03:55:27.296Z,14.90
2017-09-09T03:57:55.523Z,15.00
2017-09-09T04:00:23.773Z,15.00
2017-09-09T04:02:52.811Z,15.00
2017-09-09T04:05:21.055Z,15.00
2017-09-09T04:07:49.318Z,15.00
2017-09-09T04:10:17.566Z,14.90
2017-09-09T04:12:46.579Z,15.00
2017-09-09T04:15:14.799Z,15.00
2017-09-09T04:17:43.029Z,15.00
2017-09-09T04:20:11.312Z,14.90
2017-09-09T04:22:39.584Z,15.00
2017-09-09T04:25:07.801Z,15.00
2017-09-09T04:27:36.831Z,14.90
2017-09-09T04:30:05.101Z,14.90
2017-09-09T04:32:34.123Z,14.90
2017-09-09T04:35:02.347Z,14.90
2017-09-09T04:37:30.631Z,14.80
2017-09-09T04:39:58.905Z,14.90
2017-09-09T04:42:27.142Z,14.90
2017-09-09T04:44:56.175Z,14.90
2017-09-09T04:47:24.412Z,14.90
2017-09-09T04:49:52.654Z,14.90
2017-09-09T04:52:21.686Z,14.90
2017-09-09T04:54:50.725Z,14.90
2017-09-09T04:57:18.976Z,14.90
2017-09-09T04:59:47.999Z,14.90
2017-09-09T05:02:16.867Z,14.90
2017-09-09T05:04:45.094Z,14.90
2017-09-09T05:07:14.132Z,14.90
2017-09-09T05:09:42.426Z,14.90
2017-09-09T05:12:11.094Z,14.80
2017-09-09T05:14:40.081Z,14.80
2017-09-09T05:17:09.161Z,14.80
2017-09-09T05:19:37.738Z,14.80
2017-09-09T05:22:05.982Z,14.90
2017-09-09T05:24:34.242Z,14.90
2017-09-09T05:27:02.486Z,14.90
2017-09-09T05:29:30.775Z,14.80
2017-09-09T05:31:59.795Z,14.90
2017-09-09T05:34:28.032Z,14.90
2017-09-09T05:36:56.322Z,14.80
2017-09-09T05:39:25.350Z,14.90
2017-09-09T05:41:54.383Z,14.90
2017-09-09T05:44:22.605Z,14.90
2017-09-09T05:46:50.866Z,14.80
2017-09-09T05:49:19.882Z,14.80
2017-09-09T05:51:48.142Z,14.70
2017-09-09T05:54:17.152Z,14.80
2017-09-09T05:56:45.426Z,14.80
2017-09-09T05:59:14.460Z,14.60
2017-09-09T06:01:43.494Z,14.60
2017-09-09T06:04:11.766Z,14.60
2017-09-09T06:06:40.780Z,14.60
2017-09-09T06:09:09.113Z,14.50
2017-09-09T06:11:37.419Z,14.30
2017-09-09T06:14:05.746Z,14.30
2017-09-09T06:16:33.978Z,14.20
2017-09-09T06:19:03.789Z,14.20
2017-09-09T06:21:32.825Z,14.20
2017-09-09T06:24:01.085Z,14.20
2017-09-09T06:26:29.339Z,14.20
2017-09-09T06:28:57.590Z,14.20
2017-09-09T06:31:25.866Z,14.20
2017-09-09T06:33:54.132Z,14.10
2017-09-09T06:36:23.157Z,14.00
2017-09-09T06:38:51.392Z,14.00
2017-09-09T06:41:20.439Z,14.10
2017-09-09T06:43:49.624Z,14.10
2017-09-09T06:46:17.902Z,14.10
2017-09-09T06:48:46.218Z,14.00
2017-09-09T06:51:14.535Z,14.00
2017-09-09T06:53:42.786Z,13.90
2017-09-09T06:56:11.058Z,13.90
2017-09-09T06:58:39.476Z,14.00
2017-09-09T07:01:07.751Z,14.00
2017-09-09T07:03:36.092Z,13.80
2017-09-09T07:06:04.329Z,13.70
2017-09-09T07:08:32.609Z,13.70
2017-09-09T07:11:00.852Z,13.70
2017-09-09T07:13:29.892Z,13.80
2017-09-09T07:15:58.926Z,13.80
2017-09-09T07:18:27.182Z,13.80
2017-09-09T07:20:56.231Z,13.90
2017-09-09T07:23:24.488Z,13.90
2017-09-09T07:25:52.854Z,14.00
2017-09-09T07:28:21.078Z,14.10
2017-09-09T07:30:49.328Z,14.10
2017-09-09T07:33:17.574Z,14.20
2017-09-09T07:35:45.856Z,14.30
2017-09-09T07:38:14.070Z,14.40
2017-09-09T07:40:42.308Z,14.50
2017-09-09T07:43:10.567Z,14.50
2017-09-09T07:45:39.580Z,14.60
2017-09-09T07:48:07.823Z,14.60
2017-09-09T07:50:36.114Z,14.70
2017-09-09T07:53:04.419Z,14.90
2017-09-09T07:55:32.657Z,15.10
2017-09-09T07:58:00.933Z,15.20
2017-09-09T08:00:29.935Z,15.30
2017-09-09T08:02:58.226Z,15.30
2017-09-09T08:05:26.517Z,15.40
2017-09-09T08:07:54.794Z,15.60
2017-09-09T08:10:23.021Z,15.50
2017-09-09T08:12:51.299Z,15.50
2017-09-09T08:15:19.545Z,15.60
2017-09-09T08:17:47.888Z,15.70
2017-09-09T08:20:16.154Z,15.90
2017-09-09T08:22:45.222Z,15.70
2017-09-09T08:25:13.487Z,15.70
2017-09-09T08:27:41.748Z,15.60
2017-09-09T08:30:10.022Z,15.50
2017-09-09T08:32:38.253Z,15.40
2017-09-09T08:35:06.519Z,15.30
2017-09-09T08:37:35.545Z,15.30
2017-09-09T08:40:03.844Z,15.30
2017-09-09T08:42:32.112Z,15.40
2017-09-09T08:45:00.387Z,15.60
2017-09-09T08:47:28.678Z,15.80
2017-09-09T08:49:56.904Z,15.80
2017-09-09T08:52:25.914Z,16.00
2017-09-09T08:54:54.173Z,15.90
2017-09-09T08:57:23.226Z,15.90
2017-09-09T08:59:51.503Z,15.90
2017-09-09T09:02:20.532Z,16.20
2017-09-09T09:04:48.770Z,16.20
2017-09-09T09:07:17.051Z,16.10
2017-09-09T09:09:45.300Z,16.20
2017-09-09T09:12:13.560Z,15.90
2017-09-09T09:14:42.598Z,16.10
2017-09-09T09:17:10.868Z,16.10
2017-09-09T09:19:39.159Z,16.10
2017-09-09T09:22:07.399Z,15.90
2017-09-09T09:24:35.819Z,15.50
2017-09-09T09:27:04.058Z,15.60
2017-09-09T09:29:32.305Z,15.70
2017-09-09T09:32:01.335Z,15.90
2017-09-09T09:34:29.623Z,15.80
2017-09-09T09:36:57.907Z,15.90
2017-09-09T09:39:26.445Z,16.00
2017-09-09T09:41:54.694Z,16.20
2017-09-09T09:44:23.098Z,16.10
2017-09-09T09:46:52.183Z,16.30
2017-09-09T09:49:20.474Z,16.30
2017-09-09T09:51:49.556Z,16.60
2017-09-09T09:54:17.869Z,16.50
2017-09-09T09:56:46.909Z,16.40
2017-09-09T09:59:15.170Z,16.40
2017-09-09T10:01:44.209Z,16.50
2017-09-09T10:04:12.545Z,16.50
2017-09-09T10:06:40.856Z,16.70
2017-09-09T10:09:09.148Z,16.90
2017-09-09T10:11:38.157Z,17.40
2017-09-09T10:14:06.417Z,17.30
2017-09-09T10:16:34.680Z,17.40
2017-09-09T10:19:02.952Z,17.40
2017-09-09T10:21:31.217Z,17.50
2017-09-09T10:23:59.533Z,17.50
2017-09-09T10:26:28.419Z,17.60
2017-09-09T10:28:56.705Z,17.80
2017-09-09T10:31:25.745Z,17.60
2017-09-09T10:33:54.020Z,17.60
2017-09-09T10:36:22.314Z,17.30
2017-09-09T10:38:50.625Z,17.00
2017-09-09T10:41:18.918Z,17.10
2017-09-09T10:43:47.184Z,17.40
2017-09-09T10:46:16.188Z,17.40
2017-09-09T10:48:44.437Z,17.30
2017-09-09T10:51:12.756Z,17.10
2017-09-09T10:53:41.074Z,16.60
2017-09-09T10:56:09.342Z,16.30
2017-09-09T10:58:37.620Z,15.80
2017-09-09T11:01:05.844Z,15.80
2017-09-09T11:03:34.075Z,16.00
2017-09-09T11:06:02.368Z,15.80
2017-09-09T11:08:30.699Z,15.80
2017-09-09T11:10:58.987Z,15.90
2017-09-09T11:13:27.253Z,16.10
2017-09-09T11:15:55.575Z,16.00
2017-09-09T11:18:24.748Z,16.40
2017-09-09T11:20:53.130Z,16.40
2017-09-09T11:23:22.166Z,15.90
2017-09-09T11:25:51.257Z,15.70
2017-09-09T11:28:19.546Z,15.70
2017-09-09T11:30:47.795Z,15.80
2017-09-09T11:33:16.085Z,15.60
2017-09-09T11:35:45.171Z,16.20
2017-09-09T11:38:13.461Z,16.20
2017-09-09T11:40:41.710Z,16.30
2017-09-09T11:43:10.775Z,16.30
2017-09-09T11:45:39.774Z,16.30
2017-09-09T11:48:08.078Z,16.20
2017-09-09T11:50:36.314Z,16.40
2017-09-09T11:53:05.356Z,16.70
2017-09-09T11:55:33.607Z,16.70
2017-09-09T11:58:01.841Z,16.90
2017-09-09T12:00:30.117Z,17.00
2017-09-09T12:02:59.137Z,17.10
2017-09-09T12:05:28.187Z,16.80
2017-09-09T12:07:56.477Z,16.80
2017-09-09T12:10:24.774Z,17.00
2017-09-09T12:12:53.008Z,16.90
2017-09-09T12:15:21.319Z,17.00
2017-09-09T12:17:49.608Z,16.90
2017-09-09T12:20:17.945Z,17.00
2017-09-09T12:22:46.217Z,17.10
2017-09-09T12:25:14.464Z,17.50
2017-09-09T12:27:42.746Z,17.50
2017-09-09T12:30:11.045Z,17.60
2017-09-09T12:32:39.431Z,17.50
2017-09-09T12:35:07.678Z,17.30
2017-09-09T12:37:35.934Z,17.50
2017-09-09T12:40:04.237Z,17.60
2017-09-09T12:42:33.227Z,17.90
2017-09-09T12:45:02.285Z,17.90
2017-09-09T12:47:30.571Z,17.90
2017-09-09T12:49:58.827Z,17.60
2017-09-09T12:52:27.841Z,17.70
2017-09-09T12:54:56.872Z,17.60
2017-09-09T12:57:25.170Z,17.60
2017-09-09T12:59:53.449Z,17.70
2017-09-09T13:02:21.724Z,17.30
2017-09-09T13:04:49.992Z,17.40
2017-09-09T13:07:18.254Z,17.60
2017-09-09T13:09:46.536Z,17.70
2017-09-09T13:12:14.795Z,18.00
2017-09-09T13:14:43.056Z,18.10
2017-09-09T13:17:11.364Z,17.60
2017-09-09T13:19:39.672Z,17.70
2017-09-09T13:22:08.735Z,17.60
2017-09-09T13:24:36.998Z,17.60
2017-09-09T13:27:05.307Z,17.50
2017-09-09T13:29:33.576Z,17.30
2017-09-09T13:32:02.174Z,17.50
2017-09-09T13:34:30.458Z,17.60
2017-09-09T13:36:58.730Z,17.60
2017-09-09T13:39:27.060Z,17.30
2017-09-09T13:41:55.304Z,17.30
2017-09-09T13:44:23.575Z,17.40
2017-09-09T13:46:51.855Z,17.40
2017-09-09T13:49:20.139Z,17.50
2017-09-09T13:51:48.399Z,17.60
2017-09-09T13:54:16.875Z,17.80
2017-09-09T13:56:45.097Z,18.10
2017-09-09T13:59:13.387Z,18.20
2017-09-09T14:01:42.731Z,18.00
2017-09-09T14:04:11.185Z,18.00
2017-09-09T14:06:39.476Z,17.70
2017-09-09T14:09:08.545Z,17.60
2017-09-09T14:11:37.558Z,17.60
2017-09-09T14:14:05.814Z,17.60
2017-09-09T14:16:34.163Z,17.60
2017-09-09T14:19:02.403Z,17.30
2017-09-09T14:21:30.724Z,17.10
2017-09-09T14:23:59.726Z,17.10
2017-09-09T14:26:28.421Z,17.10
2017-09-09T14:28:57.267Z,17.30
2017-09-09T14:31:25.870Z,17.50
2017-09-09T14:33:54.880Z,17.40
2017-09-09T14:36:23.150Z,17.40
2017-09-09T14:38:51.419Z,17.20
2017-09-09T14:41:20.465Z,17.20
2017-09-09T14:43:48.771Z,17.20
2017-09-09T14:46:17.029Z,16.90
2017-09-09T14:48:45.329Z,16.80
2017-09-09T14:51:13.605Z,17.10
2017-09-09T14:53:41.854Z,17.00
2017-09-09T14:56:10.142Z,16.90
2017-09-09T14:58:38.526Z,16.90
2017-09-09T15:01:06.798Z,17.00
2017-09-09T15:03:35.100Z,17.00
2017-09-09T15:06:03.368Z,16.90
2017-09-09T15:08:31.634Z,17.00
2017-09-09T15:10:59.925Z,17.00
2017-09-09T15:13:28.189Z,17.30
2017-09-09T15:15:57.265Z,17.70
2017-09-09T15:18:25.551Z,17.70
2017-09-09T15:20:53.774Z,17.80
2017-09-09T15:23:22.072Z,17.70
2017-09-09T15:25:50.365Z,17.90
2017-09-09T15:28:18.641Z,17.80
2017-09-09T15:30:46.923Z,17.50
2017-09-09T15:33:15.961Z,17.00
2017-09-09T15:35:44.265Z,17.00
2017-09-09T15:38:12.524Z,17.10
2017-09-09T15:40:40.795Z,17.30
2017-09-09T15:43:09.053Z,17.40
2017-09-09T15:45:37.402Z,17.30
2017-09-09T15:48:05.639Z,17.30
2017-09-09T15:50:33.915Z,17.50
2017-09-09T15:53:02.183Z,17.60
2017-09-09T15:55:30.447Z,17.50
2017-09-09T15:57:58.747Z,17.40
2017-09-09T16:00:27.816Z,17.80
2017-09-09T16:02:56.117Z,17.70
2017-09-09T16:05:24.406Z,18.00
2017-09-09T16:07:52.674Z,17.90
2017-09-09T16:10:20.978Z,17.90
2017-09-09T16:12:49.226Z,17.90
2017-09-09T16:15:17.481Z,17.80
2017-09-09T16:17:45.797Z,17.80
2017-09-09T16:20:14.051Z,17.90
2017-09-09T16:22:42.346Z,17.80
2017-09-09T16:25:10.606Z,17.80
2017-09-09T16:27:38.887Z,17.70
2017-09-09T16:30:07.164Z,17.70
2017-09-09T16:32:36.184Z,17.70
2017-09-09T16:35:04.459Z,17.60
2017-09-09T16:37:32.727Z,17.50
2017-09-09T16:40:00.981Z,17.50
2017-09-09T16:42:29.261Z,17.30
2017-09-09T16:44:57.518Z,17.30
2017-09-09T16:47:25.793Z,17.30
2017-09-09T16:49:54.040Z,17.00
2017-09-09T16:52:22.291Z,16.90
2017-09-09T16:54:51.317Z,17.00
2017-09-09T16:57:19.552Z,17.00
2017-09-09T16:59:47.851Z,17.00
2017-09-09T17:02:16.158Z,17.00
2017-09-09T17:04:44.836Z,17.00
2017-09-09T17:07:13.095Z,17.00
2017-09-09T17:09:41.337Z,17.10
2017-09-09T17:12:09.573Z,17.00
2017-09-09T17:14:37.846Z,17.00
2017-09-09T17:17:06.092Z,17.00
2017-09-09T17:19:34.897Z,17.00
2017-09-09T17:22:03.153Z,16.90
2017-09-09T17:24:31.462Z,16.80
2017-09-09T17:26:59.708Z,16.90
2017-09-09T17:29:27.973Z,16.90
2017-09-09T17:31:56.222Z,16.80
2017-09-09T17:34:24.527Z,16.70
2017-09-09T17:36:52.828Z,16.60
2017-09-09T17:39:21.075Z,16.40
2017-09-09T17:41:49.366Z,16.10
2017-09-09T17:44:17.663Z,16.00
2017-09-09T17:46:45.904Z,15.90
2017-09-09T17:49:14.179Z,15.80
2017-09-09T17:51:42.441Z,15.70
2017-09-09T17:54:10.689Z,15.70
2017-09-09T17:56:38.970Z,15.80
2017-09-09T17:59:07.205Z,15.80
2017-09-09T18:01:35.474Z,15.80
2017-09-09T18:04:03.746Z,15.90
2017-09-09T18:06:32.008Z,16.00
2017-09-09T18:09:00.290Z,16.00
2017-09-09T18:11:28.562Z,16.00
2017-09-09T18:13:57.563Z,15.80
2017-09-09T18:16:25.849Z,15.80
2017-09-09T18:18:54.098Z,15.60
2017-09-09T18:21:23.145Z,15.40
2017-09-09T18:23:52.198Z,15.50
2017-09-09T18:26:21.241Z,15.60
2017-09-09T18:28:49.486Z,15.50
2017-09-09T18:31:17.755Z,15.60
2017-09-09T18:33:46.785Z,15.60
2017-09-09T18:36:15.027Z,15.60
2017-09-09T18:38:43.353Z,15.30
2017-09-09T18:41:11.576Z,15.20
2017-09-09T18:43:39.867Z,15.20
2017-09-09T18:46:08.098Z,15.20
2017-09-09T18:48:36.344Z,15.10
2017-09-09T18:51:04.616Z,15.10
2017-09-09T18:53:33.673Z,15.20
2017-09-09T18:56:02.716Z,15.10
2017-09-09T18:58:31.036Z,15.10
2017-09-09T19:00:59.304Z,15.10
2017-09-09T19:03:28.352Z,15.00
2017-09-09T19:05:56.604Z,15.00
2017-09-09T19:08:24.917Z,15.00
2017-09-09T19:10:53.189Z,14.90
2017-09-09T19:13:21.503Z,14.90
2017-09-09T19:15:49.767Z,14.70
2017-09-09T19:18:18.007Z,14.70
2017-09-09T19:20:46.269Z,14.60
2017-09-09T19:23:14.535Z,14.60
2017-09-09T19:25:42.797Z,14.60
2017-09-09T19:28:11.066Z,14.60
2017-09-09T19:30:39.318Z,14.70
2017-09-09T19:33:07.621Z,14.70
2017-09-09T19:35:35.899Z,14.70
2017-09-09T19:38:04.173Z,14.80
2017-09-09T19:40:32.447Z,14.80
2017-09-09T19:43:00.833Z,14.80
2017-09-09T19:45:29.334Z,14.70
2017-09-09T19:47:57.607Z,14.70
2017-09-09T19:50:25.897Z,14.60
2017-09-09T19:52:54.756Z,14.50
2017-09-09T19:55:33.917Z,14.30
2017-09-09T19:58:02.218Z,14.30
2017-09-09T20:00:30.479Z,14.20
2017-09-09T20:02:58.760Z,14.10
2017-09-09T20:05:27.028Z,14.10
2017-09-09T20:07:55.294Z,14.00
2017-09-09T20:10:23.592Z,14.00
2017-09-09T20:12:51.871Z,14.00
2017-09-09T20:15:20.187Z,14.00
2017-09-09T20:17:48.495Z,13.90
2017-09-09T20:20:16.827Z,13.80
2017-09-09T20:22:45.091Z,13.70
2017-09-09T20:25:13.400Z,13.60
2017-09-09T20:27:41.694Z,13.40
2017-09-09T20:30:09.982Z,13.30
2017-09-09T20:32:38.291Z,13.30
2017-09-09T20:35:06.560Z,13.40
2017-09-09T20:37:35.573Z,13.50
2017-09-09T20:40:03.842Z,13.50
2017-09-09T20:42:32.087Z,13.50
2017-09-09T20:45:00.393Z,13.40
2017-09-09T20:47:29.425Z,13.30
2017-09-09T20:49:58.436Z,13.30
2017-09-09T20:52:26.693Z,13.30
2017-09-09T20:54:55.727Z,13.30
2017-09-09T20:57:24.003Z,13.30
2017-09-09T20:59:52.294Z,13.30
2017-09-09T21:02:21.363Z,13.40
2017-09-09T21:04:50.411Z,13.50
2017-09-09T21:07:18.715Z,13.40
2017-09-09T21:09:47.023Z,13.30
2017-09-09T21:12:15.257Z,13.20
2017-09-09T21:14:43.548Z,13.20
2017-09-09T21:17:11.916Z,13.20
2017-09-09T21:19:40.167Z,13.20
2017-09-09T21:22:08.967Z,13.20
2017-09-09T21:24:37.240Z,13.20
2017-09-09T21:27:05.484Z,13.20
2017-09-09T21:29:34.632Z,13.20
2017-09-09T21:32:02.896Z,13.20
2017-09-09T21:34:31.150Z,13.20
2017-09-09T21:37:00.327Z,13.20
2017-09-09T21:39:28.620Z,13.20
2017-09-09T21:41:57.647Z,13.00
2017-09-09T21:44:25.963Z,13.00
2017-09-09T21:46:54.249Z,13.00
2017-09-09T21:49:22.503Z,13.10
2017-09-09T21:51:50.779Z,13.10
2017-09-09T21:54:19.795Z,13.30
2017-09-09T21:56:48.047Z,13.30
2017-09-09T21:59:16.311Z,13.30
2017-09-09T22:01:44.559Z,13.30
2017-09-09T22:04:12.805Z,13.20
2017-09-09T22:06:41.831Z,13.20
2017-09-09T22:09:10.130Z,13.20
2017-09-09T22:11:38.362Z,13.10
2017-09-09T22:14:07.425Z,13.10
2017-09-09T22:16:35.652Z,13.10
2017-09-09T22:19:03.928Z,13.20
2017-09-09T22:21:32.999Z,13.20
2017-09-09T22:24:01.241Z,13.20
2017-09-09T22:26:29.525Z,13.20
2017-09-09T22:28:57.814Z,13.30
2017-09-09T22:31:26.038Z,13.30
2017-09-09T22:33:55.072Z,13.10
2017-09-09T22:36:23.372Z,13.10
2017-09-09T22:38:51.617Z,13.00
2017-09-09T22:41:19.912Z,13.00
2017-09-09T22:43:48.929Z,12.90
2017-09-09T22:46:17.247Z,12.90
2017-09-09T22:48:45.547Z,12.90
2017-09-09T22:51:13.835Z,12.80
2017-09-09T22:53:42.124Z,12.80
2017-09-09T22:56:11.151Z,12.80
2017-09-09T22:58:39.409Z,12.70
2017-09-09T23:01:07.670Z,12.70
2017-09-09T23:03:35.974Z,12.70
2017-09-09T23:06:05.009Z,12.70
2017-09-09T23:08:33.275Z,12.70
2017-09-09T23:11:01.533Z,12.70
2017-09-09T23:13:30.553Z,12.90
2017-09-09T23:15:58.845Z,12.90
2017-09-09T23:18:27.096Z,12.90
2017-09-09T23:20:56.107Z,13.10
2017-09-09T23:23:24.390Z,13.10
2017-09-09T23:25:52.703Z,13.10
2017-09-09T23:28:20.978Z,13.20
2017-09-09T23:30:49.255Z,13.30
2017-09-09T23:33:17.530Z,13.20
2017-09-09T23:35:45.766Z,13.20
2017-09-09T23:38:14.042Z,13.10
2017-09-09T23:40:42.311Z,13.00
2017-09-09T23:43:11.371Z,12.90
2017-09-09T23:45:39.646Z,12.90
2017-09-09T23:48:07.916Z,12.80
2017-09-09T23:50:36.248Z,12.70
2017-09-09T23:53:04.500Z,12.70
2017-09-09T23:55:32.756Z,12.70
2017-09-09T23:58:00.990Z,12.70
